sensor_id;sensor_type;location;lat;lon;timestamp;P1;durP1;ratioP1;P2;durP2;ratioP2
2039;SDS011;1025;42.686;23.350;2023-09-07T00:01:49;8.80;;;7.90;;
2039;SDS011;1025;42.686;23.350;2023-09-07T00:04:17;9.77;;;8.87;;
2039;SDS011;1025;42.686;23.350;2023-09-07T00:06:44;10.30;;;9.27;;
2039;SDS011;1025;42.686;23.350;2023-09-07T00:09:11;10.30;;;9.50;;
2039;SDS011;1025;42.686;23.350;2023-09-07T00:11:38;10.90;;;8.70;;
2039;SDS011;1025;42.686;23.350;2023-09-07T00:14:06;9.53;;;8.70;;
2039;SDS011;1025;42.686;23.350;2023-09-07T00:16:33;10.60;;;9.57;;
2039;SDS011;1025;42.686;23.350;2023-09-07T00:19:00;9.07;;;8.37;;
2039;SDS011;1025;42.686;23.350;2023-09-07T00:21:28;9.70;;;8.77;;
2039;SDS011;1025;42.686;23.350;2023-09-07T00:23:54;10.53;;;9.63;;
2039;SDS011;1025;42.686;23.350;2023-09-07T00:26:21;8.80;;;8.03;;
2039;SDS011;1025;42.686;23.350;2023-09-07T00:28:48;8.40;;;7.77;;
2039;SDS011;1025;42.686;23.350;2023-09-07T00:31:15;10.17;;;9.27;;
2039;SDS011;1025;42.686;23.350;2023-09-07T00:33:42;9.77;;;8.97;;
2039;SDS011;1025;42.686;23.350;2023-09-07T00:36:08;9.60;;;8.80;;
2039;SDS011;1025;42.686;23.350;2023-09-07T00:38:35;11.87;;;10.30;;
2039;SDS011;1025;42.686;23.350;2023-09-07T00:41:01;10.77;;;9.77;;
2039;SDS011;1025;42.686;23.350;2023-09-07T00:43:28;10.43;;;9.53;;
2039;SDS011;1025;42.686;23.350;2023-09-07T00:45:54;10.50;;;9.70;;
2039;SDS011;1025;42.686;23.350;2023-09-07T00:48:23;12.40;;;10.50;;
2039;SDS011;1025;42.686;23.350;2023-09-07T00:50:49;9.83;;;8.77;;
2039;SDS011;1025;42.686;23.350;2023-09-07T00:53:16;10.07;;;9.17;;
2039;SDS011;1025;42.686;23.350;2023-09-07T00:55:43;10.37;;;9.57;;
2039;SDS011;1025;42.686;23.350;2023-09-07T00:58:10;11.40;;;10.30;;
2039;SDS011;1025;42.686;23.350;2023-09-07T01:00:37;10.87;;;10.07;;
2039;SDS011;1025;42.686;23.350;2023-09-07T01:03:04;10.57;;;9.77;;
2039;SDS011;1025;42.686;23.350;2023-09-07T01:05:34;11.43;;;10.00;;
2039;SDS011;1025;42.686;23.350;2023-09-07T01:08:05;11.87;;;10.80;;
2039;SDS011;1025;42.686;23.350;2023-09-07T01:10:32;11.93;;;10.77;;
2039;SDS011;1025;42.686;23.350;2023-09-07T01:12:59;10.80;;;9.90;;
2039;SDS011;1025;42.686;23.350;2023-09-07T01:15:25;12.60;;;11.30;;
2039;SDS011;1025;42.686;23.350;2023-09-07T01:17:52;12.20;;;11.20;;
2039;SDS011;1025;42.686;23.350;2023-09-07T01:20:19;12.20;;;11.20;;
2039;SDS011;1025;42.686;23.350;2023-09-07T01:22:47;12.50;;;11.50;;
2039;SDS011;1025;42.686;23.350;2023-09-07T01:25:14;14.77;;;10.23;;
2039;SDS011;1025;42.686;23.350;2023-09-07T01:27:41;11.20;;;10.30;;
2039;SDS011;1025;42.686;23.350;2023-09-07T01:30:07;13.03;;;11.90;;
2039;SDS011;1025;42.686;23.350;2023-09-07T01:32:34;13.93;;;12.53;;
2039;SDS011;1025;42.686;23.350;2023-09-07T01:35:01;13.27;;;11.90;;
2039;SDS011;1025;42.686;23.350;2023-09-07T01:37:29;15.87;;;13.77;;
2039;SDS011;1025;42.686;23.350;2023-09-07T01:39:57;12.70;;;11.60;;
2039;SDS011;1025;42.686;23.350;2023-09-07T01:42:24;12.50;;;11.60;;
2039;SDS011;1025;42.686;23.350;2023-09-07T01:44:51;14.40;;;13.23;;
2039;SDS011;1025;42.686;23.350;2023-09-07T01:47:17;13.33;;;12.17;;
2039;SDS011;1025;42.686;23.350;2023-09-07T01:49:44;15.23;;;13.93;;
2039;SDS011;1025;42.686;23.350;2023-09-07T01:52:10;13.73;;;12.67;;
2039;SDS011;1025;42.686;23.350;2023-09-07T01:54:37;14.00;;;12.93;;
2039;SDS011;1025;42.686;23.350;2023-09-07T01:57:05;15.40;;;13.90;;
2039;SDS011;1025;42.686;23.350;2023-09-07T01:59:31;14.93;;;13.53;;
2039;SDS011;1025;42.686;23.350;2023-09-07T02:01:58;14.63;;;13.33;;
2039;SDS011;1025;42.686;23.350;2023-09-07T02:04:24;14.50;;;13.20;;
2039;SDS011;1025;42.686;23.350;2023-09-07T02:06:51;13.20;;;12.20;;
2039;SDS011;1025;42.686;23.350;2023-09-07T02:09:17;13.67;;;12.57;;
2039;SDS011;1025;42.686;23.350;2023-09-07T02:11:44;13.90;;;12.70;;
2039;SDS011;1025;42.686;23.350;2023-09-07T02:14:12;14.70;;;13.47;;
2039;SDS011;1025;42.686;23.350;2023-09-07T02:16:38;14.87;;;13.33;;
2039;SDS011;1025;42.686;23.350;2023-09-07T02:19:05;15.70;;;14.10;;
2039;SDS011;1025;42.686;23.350;2023-09-07T02:21:31;14.03;;;12.93;;
2039;SDS011;1025;42.686;23.350;2023-09-07T02:23:58;15.70;;;14.33;;
2039;SDS011;1025;42.686;23.350;2023-09-07T02:26:24;14.97;;;13.70;;
2039;SDS011;1025;42.686;23.350;2023-09-07T02:28:51;14.80;;;13.40;;
2039;SDS011;1025;42.686;23.350;2023-09-07T02:31:19;15.87;;;14.53;;
2039;SDS011;1025;42.686;23.350;2023-09-07T02:33:45;16.07;;;14.33;;
2039;SDS011;1025;42.686;23.350;2023-09-07T02:36:12;15.53;;;14.10;;
2039;SDS011;1025;42.686;23.350;2023-09-07T02:38:39;14.90;;;13.67;;
2039;SDS011;1025;42.686;23.350;2023-09-07T02:41:05;14.83;;;13.53;;
2039;SDS011;1025;42.686;23.350;2023-09-07T02:43:32;16.30;;;14.80;;
2039;SDS011;1025;42.686;23.350;2023-09-07T02:45:58;14.57;;;13.37;;
2039;SDS011;1025;42.686;23.350;2023-09-07T02:48:26;15.13;;;13.70;;
2039;SDS011;1025;42.686;23.350;2023-09-07T02:51:01;15.23;;;13.87;;
2039;SDS011;1025;42.686;23.350;2023-09-07T02:53:28;15.70;;;14.30;;
2039;SDS011;1025;42.686;23.350;2023-09-07T02:55:54;16.43;;;15.07;;
2039;SDS011;1025;42.686;23.350;2023-09-07T02:58:21;14.73;;;13.40;;
2039;SDS011;1025;42.686;23.350;2023-09-07T03:00:48;15.77;;;14.20;;
2039;SDS011;1025;42.686;23.350;2023-09-07T03:03:14;16.00;;;14.70;;
2039;SDS011;1025;42.686;23.350;2023-09-07T03:05:43;16.00;;;14.70;;
2039;SDS011;1025;42.686;23.350;2023-09-07T03:08:10;16.00;;;14.70;;
2039;SDS011;1025;42.686;23.350;2023-09-07T03:10:37;16.07;;;14.50;;
2039;SDS011;1025;42.686;23.350;2023-09-07T03:13:04;17.20;;;15.83;;
2039;SDS011;1025;42.686;23.350;2023-09-07T03:15:31;17.80;;;15.27;;
2039;SDS011;1025;42.686;23.350;2023-09-07T03:17:58;17.83;;;16.27;;
2039;SDS011;1025;42.686;23.350;2023-09-07T03:20:24;17.57;;;16.17;;
2039;SDS011;1025;42.686;23.350;2023-09-07T03:22:52;17.43;;;15.80;;
2039;SDS011;1025;42.686;23.350;2023-09-07T03:25:19;18.43;;;16.83;;
2039;SDS011;1025;42.686;23.350;2023-09-07T03:27:45;19.00;;;17.30;;
2039;SDS011;1025;42.686;23.350;2023-09-07T03:30:12;18.30;;;16.70;;
2039;SDS011;1025;42.686;23.350;2023-09-07T03:32:38;19.63;;;17.93;;
2039;SDS011;1025;42.686;23.350;2023-09-07T03:35:05;18.83;;;17.13;;
2039;SDS011;1025;42.686;23.350;2023-09-07T03:37:34;17.53;;;15.93;;
2039;SDS011;1025;42.686;23.350;2023-09-07T03:40:02;17.23;;;15.70;;
2039;SDS011;1025;42.686;23.350;2023-09-07T03:42:30;18.23;;;16.30;;
2039;SDS011;1025;42.686;23.350;2023-09-07T03:44:57;19.40;;;17.50;;
2039;SDS011;1025;42.686;23.350;2023-09-07T03:47:26;20.37;;;18.47;;
2039;SDS011;1025;42.686;23.350;2023-09-07T03:49:54;19.27;;;17.60;;
2039;SDS011;1025;42.686;23.350;2023-09-07T03:52:20;21.10;;;19.43;;
2039;SDS011;1025;42.686;23.350;2023-09-07T03:54:49;20.90;;;19.10;;
2039;SDS011;1025;42.686;23.350;2023-09-07T03:57:17;20.33;;;18.73;;
2039;SDS011;1025;42.686;23.350;2023-09-07T03:59:43;20.47;;;18.57;;
2039;SDS011;1025;42.686;23.350;2023-09-07T04:02:10;21.23;;;19.47;;
2039;SDS011;1025;42.686;23.350;2023-09-07T04:04:37;19.70;;;17.77;;
2039;SDS011;1025;42.686;23.350;2023-09-07T04:07:04;20.67;;;19.03;;
2039;SDS011;1025;42.686;23.350;2023-09-07T04:09:30;21.90;;;20.10;;
2039;SDS011;1025;42.686;23.350;2023-09-07T04:11:57;21.10;;;19.37;;
2039;SDS011;1025;42.686;23.350;2023-09-07T04:14:25;21.73;;;19.90;;
2039;SDS011;1025;42.686;23.350;2023-09-07T04:16:51;20.53;;;18.60;;
2039;SDS011;1025;42.686;23.350;2023-09-07T04:19:18;18.87;;;17.23;;
2039;SDS011;1025;42.686;23.350;2023-09-07T04:21:44;22.50;;;20.60;;
2039;SDS011;1025;42.686;23.350;2023-09-07T04:24:11;20.23;;;18.40;;
2039;SDS011;1025;42.686;23.350;2023-09-07T04:26:37;21.00;;;19.20;;
2039;SDS011;1025;42.686;23.350;2023-09-07T04:29:04;20.77;;;18.30;;
2039;SDS011;1025;42.686;23.350;2023-09-07T04:31:34;21.00;;;18.77;;
2039;SDS011;1025;42.686;23.350;2023-09-07T04:34:00;18.97;;;17.27;;
2039;SDS011;1025;42.686;23.350;2023-09-07T04:36:28;18.30;;;16.70;;
2039;SDS011;1025;42.686;23.350;2023-09-07T04:38:54;18.60;;;16.90;;
2039;SDS011;1025;42.686;23.350;2023-09-07T04:41:21;19.67;;;17.80;;
2039;SDS011;1025;42.686;23.350;2023-09-07T04:43:47;19.60;;;18.00;;
2039;SDS011;1025;42.686;23.350;2023-09-07T04:46:14;19.27;;;16.63;;
2039;SDS011;1025;42.686;23.350;2023-09-07T04:48:42;20.20;;;18.23;;
2039;SDS011;1025;42.686;23.350;2023-09-07T04:51:09;19.23;;;17.33;;
2039;SDS011;1025;42.686;23.350;2023-09-07T04:53:37;21.10;;;17.67;;
2039;SDS011;1025;42.686;23.350;2023-09-07T04:56:04;19.63;;;17.93;;
2039;SDS011;1025;42.686;23.350;2023-09-07T04:58:31;17.57;;;16.07;;
2039;SDS011;1025;42.686;23.350;2023-09-07T05:01:01;20.43;;;18.43;;
2039;SDS011;1025;42.686;23.350;2023-09-07T05:03:27;18.90;;;17.17;;
2039;SDS011;1025;42.686;23.350;2023-09-07T05:05:55;19.33;;;17.40;;
2039;SDS011;1025;42.686;23.350;2023-09-07T05:08:22;18.87;;;16.97;;
2039;SDS011;1025;42.686;23.350;2023-09-07T05:10:54;19.93;;;18.20;;
2039;SDS011;1025;42.686;23.350;2023-09-07T05:13:21;20.20;;;18.50;;
2039;SDS011;1025;42.686;23.350;2023-09-07T05:15:54;18.47;;;16.90;;
2039;SDS011;1025;42.686;23.350;2023-09-07T05:18:21;19.90;;;18.23;;
2039;SDS011;1025;42.686;23.350;2023-09-07T05:20:48;20.50;;;18.73;;
2039;SDS011;1025;42.686;23.350;2023-09-07T05:23:19;19.83;;;17.93;;
2039;SDS011;1025;42.686;23.350;2023-09-07T05:25:56;25.63;;;17.77;;
2039;SDS011;1025;42.686;23.350;2023-09-07T05:28:25;20.70;;;18.50;;
2039;SDS011;1025;42.686;23.350;2023-09-07T05:30:52;18.33;;;16.63;;
2039;SDS011;1025;42.686;23.350;2023-09-07T05:33:18;18.93;;;17.17;;
2039;SDS011;1025;42.686;23.350;2023-09-07T05:35:45;18.83;;;17.03;;
2039;SDS011;1025;42.686;23.350;2023-09-07T05:38:11;19.87;;;17.80;;
2039;SDS011;1025;42.686;23.350;2023-09-07T05:40:40;18.93;;;17.13;;
2039;SDS011;1025;42.686;23.350;2023-09-07T05:43:07;18.17;;;16.33;;
2039;SDS011;1025;42.686;23.350;2023-09-07T05:45:34;17.70;;;16.03;;
2039;SDS011;1025;42.686;23.350;2023-09-07T05:50:46;18.37;;;16.87;;
2039;SDS011;1025;42.686;23.350;2023-09-07T05:53:12;18.23;;;16.50;;
2039;SDS011;1025;42.686;23.350;2023-09-07T05:55:40;18.10;;;15.93;;
2039;SDS011;1025;42.686;23.350;2023-09-07T05:58:07;18.87;;;16.87;;
2039;SDS011;1025;42.686;23.350;2023-09-07T06:00:34;17.00;;;15.37;;
2039;SDS011;1025;42.686;23.350;2023-09-07T06:03:00;20.13;;;15.80;;
2039;SDS011;1025;42.686;23.350;2023-09-07T06:05:28;17.90;;;16.03;;
2039;SDS011;1025;42.686;23.350;2023-09-07T06:07:55;17.43;;;15.87;;
2039;SDS011;1025;42.686;23.350;2023-09-07T06:10:27;17.93;;;16.33;;
2039;SDS011;1025;42.686;23.350;2023-09-07T06:12:55;18.07;;;16.47;;
2039;SDS011;1025;42.686;23.350;2023-09-07T06:15:23;18.93;;;17.00;;
2039;SDS011;1025;42.686;23.350;2023-09-07T06:17:50;15.50;;;14.10;;
2039;SDS011;1025;42.686;23.350;2023-09-07T06:20:30;14.33;;;12.93;;
2039;SDS011;1025;42.686;23.350;2023-09-07T06:23:03;12.86;;;11.68;;
2039;SDS011;1025;42.686;23.350;2023-09-07T06:25:29;13.82;;;12.73;;
2039;SDS011;1025;42.686;23.350;2023-09-07T06:27:57;12.70;;;11.60;;
2039;SDS011;1025;42.686;23.350;2023-09-07T06:30:24;12.33;;;11.23;;
2039;SDS011;1025;42.686;23.350;2023-09-07T06:32:50;13.20;;;11.80;;
2039;SDS011;1025;42.686;23.350;2023-09-07T06:35:18;11.77;;;10.53;;
2039;SDS011;1025;42.686;23.350;2023-09-07T06:37:44;11.60;;;10.70;;
2039;SDS011;1025;42.686;23.350;2023-09-07T06:40:11;12.40;;;11.20;;
2039;SDS011;1025;42.686;23.350;2023-09-07T06:42:40;11.40;;;10.40;;
2039;SDS011;1025;42.686;23.350;2023-09-07T06:45:09;12.50;;;11.20;;
2039;SDS011;1025;42.686;23.350;2023-09-07T06:47:35;10.33;;;9.53;;
2039;SDS011;1025;42.686;23.350;2023-09-07T06:50:02;10.80;;;9.90;;
2039;SDS011;1025;42.686;23.350;2023-09-07T06:52:29;10.50;;;9.60;;
2039;SDS011;1025;42.686;23.350;2023-09-07T06:54:55;10.43;;;9.27;;
2039;SDS011;1025;42.686;23.350;2023-09-07T06:57:22;9.93;;;8.50;;
2039;SDS011;1025;42.686;23.350;2023-09-07T06:59:49;10.83;;;9.60;;
2039;SDS011;1025;42.686;23.350;2023-09-07T07:02:17;10.20;;;9.30;;
2039;SDS011;1025;42.686;23.350;2023-09-07T07:04:43;11.63;;;10.50;;
2039;SDS011;1025;42.686;23.350;2023-09-07T07:07:11;8.90;;;8.10;;
2039;SDS011;1025;42.686;23.350;2023-09-07T07:09:38;9.13;;;8.43;;
2039;SDS011;1025;42.686;23.350;2023-09-07T07:12:05;10.00;;;9.10;;
2039;SDS011;1025;42.686;23.350;2023-09-07T07:14:31;8.53;;;7.73;;
2039;SDS011;1025;42.686;23.350;2023-09-07T07:16:58;10.67;;;9.73;;
2039;SDS011;1025;42.686;23.350;2023-09-07T07:19:34;9.83;;;9.10;;
2039;SDS011;1025;42.686;23.350;2023-09-07T07:22:01;8.33;;;7.70;;
2039;SDS011;1025;42.686;23.350;2023-09-07T07:24:28;9.80;;;8.77;;
2039;SDS011;1025;42.686;23.350;2023-09-07T07:26:54;8.90;;;8.10;;
2039;SDS011;1025;42.686;23.350;2023-09-07T07:29:21;8.33;;;6.70;;
2039;SDS011;1025;42.686;23.350;2023-09-07T07:31:48;8.53;;;7.63;;
2039;SDS011;1025;42.686;23.350;2023-09-07T07:34:14;8.00;;;7.30;;
2039;SDS011;1025;42.686;23.350;2023-09-07T07:36:43;8.80;;;6.77;;
2039;SDS011;1025;42.686;23.350;2023-09-07T07:39:09;6.60;;;5.90;;
2039;SDS011;1025;42.686;23.350;2023-09-07T07:41:36;8.97;;;8.13;;
2039;SDS011;1025;42.686;23.350;2023-09-07T07:44:03;8.23;;;7.57;;
2039;SDS011;1025;42.686;23.350;2023-09-07T07:46:30;6.43;;;5.93;;
2039;SDS011;1025;42.686;23.350;2023-09-07T07:48:57;7.87;;;7.27;;
2039;SDS011;1025;42.686;23.350;2023-09-07T07:51:26;7.50;;;6.60;;
2039;SDS011;1025;42.686;23.350;2023-09-07T07:53:55;6.30;;;5.80;;
2039;SDS011;1025;42.686;23.350;2023-09-07T07:56:22;6.73;;;6.10;;
2039;SDS011;1025;42.686;23.350;2023-09-07T07:58:49;7.17;;;6.47;;
2039;SDS011;1025;42.686;23.350;2023-09-07T08:01:16;9.30;;;8.37;;
2039;SDS011;1025;42.686;23.350;2023-09-07T08:03:43;6.30;;;5.80;;
2039;SDS011;1025;42.686;23.350;2023-09-07T08:06:09;7.17;;;6.57;;
2039;SDS011;1025;42.686;23.350;2023-09-07T08:08:37;9.43;;;6.97;;
2039;SDS011;1025;42.686;23.350;2023-09-07T08:11:05;7.13;;;6.47;;
2039;SDS011;1025;42.686;23.350;2023-09-07T08:13:32;8.33;;;7.50;;
2039;SDS011;1025;42.686;23.350;2023-09-07T08:16:00;7.83;;;7.13;;
2039;SDS011;1025;42.686;23.350;2023-09-07T08:18:26;7.93;;;7.23;;
2039;SDS011;1025;42.686;23.350;2023-09-07T08:20:53;8.00;;;6.43;;
2039;SDS011;1025;42.686;23.350;2023-09-07T08:23:20;7.93;;;7.23;;
2039;SDS011;1025;42.686;23.350;2023-09-07T08:25:47;7.40;;;6.20;;
2039;SDS011;1025;42.686;23.350;2023-09-07T08:28:15;6.60;;;6.00;;
2039;SDS011;1025;42.686;23.350;2023-09-07T08:30:43;7.00;;;6.30;;
2039;SDS011;1025;42.686;23.350;2023-09-07T08:33:09;7.60;;;7.00;;
2039;SDS011;1025;42.686;23.350;2023-09-07T08:35:36;7.23;;;6.63;;
2039;SDS011;1025;42.686;23.350;2023-09-07T08:38:09;6.23;;;5.70;;
2039;SDS011;1025;42.686;23.350;2023-09-07T08:40:35;6.80;;;6.20;;
2039;SDS011;1025;42.686;23.350;2023-09-07T08:43:05;6.73;;;6.13;;
2039;SDS011;1025;42.686;23.350;2023-09-07T08:45:37;7.07;;;6.37;;
2039;SDS011;1025;42.686;23.350;2023-09-07T08:48:06;7.40;;;6.80;;
2039;SDS011;1025;42.686;23.350;2023-09-07T08:50:33;6.20;;;5.73;;
2039;SDS011;1025;42.686;23.350;2023-09-07T08:53:03;7.00;;;6.33;;
2039;SDS011;1025;42.686;23.350;2023-09-07T08:55:29;7.40;;;5.80;;
2039;SDS011;1025;42.686;23.350;2023-09-07T08:57:56;6.03;;;5.63;;
2039;SDS011;1025;42.686;23.350;2023-09-07T09:00:23;7.00;;;6.30;;
2039;SDS011;1025;42.686;23.350;2023-09-07T09:02:51;6.20;;;5.67;;
2039;SDS011;1025;42.686;23.350;2023-09-07T09:05:19;6.87;;;5.57;;
2039;SDS011;1025;42.686;23.350;2023-09-07T09:07:46;6.57;;;6.00;;
2039;SDS011;1025;42.686;23.350;2023-09-07T09:10:12;6.80;;;6.10;;
2039;SDS011;1025;42.686;23.350;2023-09-07T09:12:44;5.70;;;5.37;;
2039;SDS011;1025;42.686;23.350;2023-09-07T09:15:11;5.67;;;5.23;;
2039;SDS011;1025;42.686;23.350;2023-09-07T09:17:38;5.50;;;5.00;;
2039;SDS011;1025;42.686;23.350;2023-09-07T09:20:19;5.37;;;4.97;;
2039;SDS011;1025;42.686;23.350;2023-09-07T09:22:45;4.77;;;4.40;;
2039;SDS011;1025;42.686;23.350;2023-09-07T09:25:12;6.53;;;5.93;;
2039;SDS011;1025;42.686;23.350;2023-09-07T09:27:38;5.20;;;4.80;;
2039;SDS011;1025;42.686;23.350;2023-09-07T09:30:06;7.20;;;5.50;;
2039;SDS011;1025;42.686;23.350;2023-09-07T09:32:33;6.13;;;5.40;;
2039;SDS011;1025;42.686;23.350;2023-09-07T09:35:00;5.63;;;5.20;;
2039;SDS011;1025;42.686;23.350;2023-09-07T09:37:42;5.40;;;4.63;;
2039;SDS011;1025;42.686;23.350;2023-09-07T09:40:09;5.70;;;5.20;;
2039;SDS011;1025;42.686;23.350;2023-09-07T09:42:36;5.20;;;4.80;;
2039;SDS011;1025;42.686;23.350;2023-09-07T09:45:04;5.37;;;4.87;;
2039;SDS011;1025;42.686;23.350;2023-09-07T09:47:32;6.43;;;5.90;;
2039;SDS011;1025;42.686;23.350;2023-09-07T09:49:59;5.57;;;5.07;;
2039;SDS011;1025;42.686;23.350;2023-09-07T09:52:32;5.10;;;4.70;;
2039;SDS011;1025;42.686;23.350;2023-09-07T09:55:00;5.53;;;5.13;;
2039;SDS011;1025;42.686;23.350;2023-09-07T09:57:37;7.00;;;4.90;;
2039;SDS011;1025;42.686;23.350;2023-09-07T10:00:05;5.63;;;5.23;;
2039;SDS011;1025;42.686;23.350;2023-09-07T10:02:51;5.60;;;5.20;;
2039;SDS011;1025;42.686;23.350;2023-09-07T10:05:20;5.43;;;4.93;;
2039;SDS011;1025;42.686;23.350;2023-09-07T10:08:02;7.93;;;5.73;;
2039;SDS011;1025;42.686;23.350;2023-09-07T10:10:35;5.80;;;5.30;;
2039;SDS011;1025;42.686;23.350;2023-09-07T10:13:02;4.73;;;4.33;;
2039;SDS011;1025;42.686;23.350;2023-09-07T10:15:29;4.90;;;4.40;;
2039;SDS011;1025;42.686;23.350;2023-09-07T10:18:06;8.23;;;5.63;;
2039;SDS011;1025;42.686;23.350;2023-09-07T10:20:53;5.20;;;4.80;;
2039;SDS011;1025;42.686;23.350;2023-09-07T10:23:22;6.03;;;5.40;;
2039;SDS011;1025;42.686;23.350;2023-09-07T10:25:49;5.60;;;5.20;;
2039;SDS011;1025;42.686;23.350;2023-09-07T10:28:20;5.37;;;5.00;;
2039;SDS011;1025;42.686;23.350;2023-09-07T10:30:57;5.80;;;5.30;;
2039;SDS011;1025;42.686;23.350;2023-09-07T10:33:23;5.97;;;5.37;;
2039;SDS011;1025;42.686;23.350;2023-09-07T10:35:50;6.33;;;5.13;;
2039;SDS011;1025;42.686;23.350;2023-09-07T10:38:16;7.30;;;5.37;;
2039;SDS011;1025;42.686;23.350;2023-09-07T10:40:44;5.87;;;5.40;;
2039;SDS011;1025;42.686;23.350;2023-09-07T10:43:11;6.07;;;5.47;;
2039;SDS011;1025;42.686;23.350;2023-09-07T10:45:38;9.00;;;5.43;;
2039;SDS011;1025;42.686;23.350;2023-09-07T10:48:05;9.10;;;5.70;;
2039;SDS011;1025;42.686;23.350;2023-09-07T10:50:41;5.47;;;4.93;;
2039;SDS011;1025;42.686;23.350;2023-09-07T10:53:08;4.97;;;4.67;;
2039;SDS011;1025;42.686;23.350;2023-09-07T10:55:36;6.27;;;5.67;;
2039;SDS011;1025;42.686;23.350;2023-09-07T10:58:04;5.70;;;5.20;;
2039;SDS011;1025;42.686;23.350;2023-09-07T11:00:31;5.33;;;4.90;;
2039;SDS011;1025;42.686;23.350;2023-09-07T11:02:58;6.33;;;5.37;;
2039;SDS011;1025;42.686;23.350;2023-09-07T11:05:25;8.53;;;5.50;;
2039;SDS011;1025;42.686;23.350;2023-09-07T11:07:51;5.20;;;4.70;;
2039;SDS011;1025;42.686;23.350;2023-09-07T11:10:18;5.87;;;5.33;;
2039;SDS011;1025;42.686;23.350;2023-09-07T11:12:46;5.53;;;4.97;;
2039;SDS011;1025;42.686;23.350;2023-09-07T11:15:14;5.03;;;4.53;;
2039;SDS011;1025;42.686;23.350;2023-09-07T11:17:40;5.70;;;5.00;;
2039;SDS011;1025;42.686;23.350;2023-09-07T11:20:07;5.47;;;5.00;;
2039;SDS011;1025;42.686;23.350;2023-09-07T11:22:35;5.10;;;4.60;;
2039;SDS011;1025;42.686;23.350;2023-09-07T11:25:04;4.93;;;4.53;;
2039;SDS011;1025;42.686;23.350;2023-09-07T11:27:31;4.97;;;3.93;;
2039;SDS011;1025;42.686;23.350;2023-09-07T11:29:58;5.53;;;5.03;;
2039;SDS011;1025;42.686;23.350;2023-09-07T11:32:34;5.43;;;3.60;;
2039;SDS011;1025;42.686;23.350;2023-09-07T11:35:01;4.80;;;4.40;;
2039;SDS011;1025;42.686;23.350;2023-09-07T11:37:27;5.30;;;4.87;;
2039;SDS011;1025;42.686;23.350;2023-09-07T11:39:54;5.33;;;4.67;;
2039;SDS011;1025;42.686;23.350;2023-09-07T11:42:21;3.97;;;3.67;;
2039;SDS011;1025;42.686;23.350;2023-09-07T11:44:48;4.93;;;4.53;;
2039;SDS011;1025;42.686;23.350;2023-09-07T11:47:14;4.50;;;4.20;;
2039;SDS011;1025;42.686;23.350;2023-09-07T11:49:42;3.80;;;3.50;;
2039;SDS011;1025;42.686;23.350;2023-09-07T11:52:09;8.40;;;4.60;;
2039;SDS011;1025;42.686;23.350;2023-09-07T11:54:36;4.57;;;4.00;;
2039;SDS011;1025;42.686;23.350;2023-09-07T11:57:03;4.83;;;4.43;;
2039;SDS011;1025;42.686;23.350;2023-09-07T11:59:29;7.23;;;4.93;;
2039;SDS011;1025;42.686;23.350;2023-09-07T12:01:57;6.13;;;5.53;;
2039;SDS011;1025;42.686;23.350;2023-09-07T12:04:24;3.80;;;3.60;;
2039;SDS011;1025;42.686;23.350;2023-09-07T12:06:52;5.63;;;5.13;;
2039;SDS011;1025;42.686;23.350;2023-09-07T12:09:18;6.20;;;4.47;;
2039;SDS011;1025;42.686;23.350;2023-09-07T12:11:46;4.33;;;4.03;;
2039;SDS011;1025;42.686;23.350;2023-09-07T12:14:13;5.63;;;5.13;;
2039;SDS011;1025;42.686;23.350;2023-09-07T12:16:39;5.17;;;4.50;;
2039;SDS011;1025;42.686;23.350;2023-09-07T12:19:06;10.60;;;5.80;;
2039;SDS011;1025;42.686;23.350;2023-09-07T12:21:33;5.03;;;4.63;;
2039;SDS011;1025;42.686;23.350;2023-09-07T12:24:01;5.27;;;4.77;;
2039;SDS011;1025;42.686;23.350;2023-09-07T12:26:27;6.73;;;4.40;;
2039;SDS011;1025;42.686;23.350;2023-09-07T12:28:54;5.53;;;4.50;;
2039;SDS011;1025;42.686;23.350;2023-09-07T12:31:21;5.57;;;4.30;;
2039;SDS011;1025;42.686;23.350;2023-09-07T12:33:47;5.20;;;4.77;;
2039;SDS011;1025;42.686;23.350;2023-09-07T12:36:14;4.23;;;4.03;;
2039;SDS011;1025;42.686;23.350;2023-09-07T12:38:40;5.07;;;4.67;;
2039;SDS011;1025;42.686;23.350;2023-09-07T12:41:08;4.20;;;3.90;;
2039;SDS011;1025;42.686;23.350;2023-09-07T12:43:35;4.33;;;3.93;;
2039;SDS011;1025;42.686;23.350;2023-09-07T12:46:02;5.53;;;4.53;;
2039;SDS011;1025;42.686;23.350;2023-09-07T12:48:28;6.23;;;4.70;;
2039;SDS011;1025;42.686;23.350;2023-09-07T12:50:55;8.60;;;4.33;;
2039;SDS011;1025;42.686;23.350;2023-09-07T12:53:21;4.83;;;4.33;;
2039;SDS011;1025;42.686;23.350;2023-09-07T12:55:51;5.20;;;4.63;;
2039;SDS011;1025;42.686;23.350;2023-09-07T12:58:19;5.00;;;4.50;;
2039;SDS011;1025;42.686;23.350;2023-09-07T13:00:46;3.93;;;3.63;;
2039;SDS011;1025;42.686;23.350;2023-09-07T13:03:16;4.80;;;4.20;;
2039;SDS011;1025;42.686;23.350;2023-09-07T13:05:43;8.60;;;4.13;;
2039;SDS011;1025;42.686;23.350;2023-09-07T13:08:10;4.53;;;4.13;;
2039;SDS011;1025;42.686;23.350;2023-09-07T13:10:37;4.17;;;3.87;;
2039;SDS011;1025;42.686;23.350;2023-09-07T13:13:05;5.50;;;3.30;;
2039;SDS011;1025;42.686;23.350;2023-09-07T13:15:32;4.83;;;4.50;;
2039;SDS011;1025;42.686;23.350;2023-09-07T13:17:59;5.10;;;4.30;;
2039;SDS011;1025;42.686;23.350;2023-09-07T13:20:26;4.10;;;3.80;;
2039;SDS011;1025;42.686;23.350;2023-09-07T13:22:53;4.63;;;4.33;;
2039;SDS011;1025;42.686;23.350;2023-09-07T13:25:19;4.00;;;3.67;;
2039;SDS011;1025;42.686;23.350;2023-09-07T13:27:46;4.43;;;4.03;;
2039;SDS011;1025;42.686;23.350;2023-09-07T13:30:13;5.10;;;3.80;;
2039;SDS011;1025;42.686;23.350;2023-09-07T13:32:41;4.40;;;4.00;;
2039;SDS011;1025;42.686;23.350;2023-09-07T13:35:09;4.33;;;4.03;;
2039;SDS011;1025;42.686;23.350;2023-09-07T13:37:35;5.87;;;4.00;;
2039;SDS011;1025;42.686;23.350;2023-09-07T13:40:02;5.73;;;4.20;;
2039;SDS011;1025;42.686;23.350;2023-09-07T13:42:29;4.37;;;4.07;;
2039;SDS011;1025;42.686;23.350;2023-09-07T13:44:55;5.17;;;3.87;;
2039;SDS011;1025;42.686;23.350;2023-09-07T13:47:22;6.80;;;3.97;;
2039;SDS011;1025;42.686;23.350;2023-09-07T13:49:50;4.80;;;4.40;;
2039;SDS011;1025;42.686;23.350;2023-09-07T13:52:17;5.10;;;4.70;;
2039;SDS011;1025;42.686;23.350;2023-09-07T13:54:43;4.77;;;4.47;;
2039;SDS011;1025;42.686;23.350;2023-09-07T13:57:10;4.97;;;4.47;;
2039;SDS011;1025;42.686;23.350;2023-09-07T13:59:37;4.53;;;4.17;;
2039;SDS011;1025;42.686;23.350;2023-09-07T14:02:03;4.63;;;4.23;;
2039;SDS011;1025;42.686;23.350;2023-09-07T14:04:30;11.20;;;6.07;;
2039;SDS011;1025;42.686;23.350;2023-09-07T14:06:58;11.43;;;5.40;;
2039;SDS011;1025;42.686;23.350;2023-09-07T14:09:25;5.32;;;4.47;;
2039;SDS011;1025;42.686;23.350;2023-09-07T14:11:51;5.07;;;4.57;;
2039;SDS011;1025;42.686;23.350;2023-09-07T14:14:18;6.00;;;4.20;;
2039;SDS011;1025;42.686;23.350;2023-09-07T14:16:46;4.33;;;4.03;;
2039;SDS011;1025;42.686;23.350;2023-09-07T14:19:12;4.73;;;4.13;;
2039;SDS011;1025;42.686;23.350;2023-09-07T14:21:39;4.77;;;4.17;;
2039;SDS011;1025;42.686;23.350;2023-09-07T14:24:07;4.07;;;3.77;;
2039;SDS011;1025;42.686;23.350;2023-09-07T14:26:34;4.67;;;4.30;;
2039;SDS011;1025;42.686;23.350;2023-09-07T14:29:01;4.77;;;4.37;;
2039;SDS011;1025;42.686;23.350;2023-09-07T14:31:27;4.50;;;4.00;;
2039;SDS011;1025;42.686;23.350;2023-09-07T14:33:54;6.00;;;3.90;;
2039;SDS011;1025;42.686;23.350;2023-09-07T14:36:20;5.00;;;3.90;;
2039;SDS011;1025;42.686;23.350;2023-09-07T14:38:47;3.80;;;3.50;;
2039;SDS011;1025;42.686;23.350;2023-09-07T14:41:15;5.63;;;4.27;;
2039;SDS011;1025;42.686;23.350;2023-09-07T14:43:44;4.47;;;4.17;;
2039;SDS011;1025;42.686;23.350;2023-09-07T14:46:11;11.07;;;4.50;;
2039;SDS011;1025;42.686;23.350;2023-09-07T14:48:38;4.87;;;4.50;;
2039;SDS011;1025;42.686;23.350;2023-09-07T14:51:04;5.77;;;4.03;;
2039;SDS011;1025;42.686;23.350;2023-09-07T14:53:32;4.67;;;3.83;;
2039;SDS011;1025;42.686;23.350;2023-09-07T14:55:59;4.57;;;3.60;;